Aviation Digital Data Service (ADDS)

Output produced by METARs form (0308 UTC 03 March 2015)
found at http://aviationweather.gov/adds/metars/
 
KEKN 022321Z 0300/0324 30006KT P6SM FEW250 
     FM030900 VRB04KT P6SM SCT200 
     FM031400 15007KT P6SM BKN070 
     FM031600 15008KT P6SM -FZRA OVC040 
     FM031700 16009KT 6SM -RA BR OVC025 
     FM032200 19010G15KT 3SM -RA BR OVC010